sensor_id;sensor_type;location;lat;lon;timestamp;pressure;altitude;pressure_sealevel;temperature
60731;BMP280;46580;52.114;11.674;2022-07-22T00:00:59;101223.72;;;19.88
60731;BMP280;46580;52.114;11.674;2022-07-22T00:03:24;101219.47;;;19.87
60731;BMP280;46580;52.114;11.674;2022-07-22T00:05:49;101231.22;;;19.83
60731;BMP280;46580;52.114;11.674;2022-07-22T00:08:15;101235.31;;;19.85
60731;BMP280;46580;52.114;11.674;2022-07-22T00:10:41;101225.84;;;19.84
60731;BMP280;46580;52.114;11.674;2022-07-22T00:13:06;101235.94;;;19.95
60731;BMP280;46580;52.114;11.674;2022-07-22T00:15:32;101240.53;;;19.85
60731;BMP280;46580;52.114;11.674;2022-07-22T00:17:57;101244.78;;;19.78
60731;BMP280;46580;52.114;11.674;2022-07-22T00:20:23;101232.69;;;19.77
60731;BMP280;46580;52.114;11.674;2022-07-22T00:22:48;101240.38;;;19.79
60731;BMP280;46580;52.114;11.674;2022-07-22T00:25:13;101246.56;;;19.78
60731;BMP280;46580;52.114;11.674;2022-07-22T00:27:39;101244.78;;;19.78
60731;BMP280;46580;52.114;11.674;2022-07-22T00:30:04;101241.19;;;19.79
60731;BMP280;46580;52.114;11.674;2022-07-22T00:32:30;101244.94;;;19.77
60731;BMP280;46580;52.114;11.674;2022-07-22T00:34:55;101248.34;;;19.77
60731;BMP280;46580;52.114;11.674;2022-07-22T00:37:21;101253.59;;;19.77
60731;BMP280;46580;52.114;11.674;2022-07-22T00:39:46;101241.16;;;19.72
60731;BMP280;46580;52.114;11.674;2022-07-22T00:42:13;101241.16;;;19.64
60731;BMP280;46580;52.114;11.674;2022-07-22T00:44:39;101244.44;;;19.66
60731;BMP280;46580;52.114;11.674;2022-07-22T00:47:05;101240.19;;;19.73
60731;BMP280;46580;52.114;11.674;2022-07-22T00:49:30;101237.09;;;19.77
60731;BMP280;46580;52.114;11.674;2022-07-22T00:51:56;101241.84;;;19.74
60731;BMP280;46580;52.114;11.674;2022-07-22T00:54:21;101233.63;;;19.69
60731;BMP280;46580;52.114;11.674;2022-07-22T00:56:47;101235.28;;;19.70
60731;BMP280;46580;52.114;11.674;2022-07-22T00:59:13;101235.63;;;19.67
60731;BMP280;46580;52.114;11.674;2022-07-22T01:01:39;101232.34;;;19.65
60731;BMP280;46580;52.114;11.674;2022-07-22T01:04:04;101234.97;;;19.65
60731;BMP280;46580;52.114;11.674;2022-07-22T01:06:30;101224.81;;;19.62
60731;BMP280;46580;52.114;11.674;2022-07-22T01:08:56;101233.31;;;19.64
60731;BMP280;46580;52.114;11.674;2022-07-22T01:11:21;101233.47;;;19.62
60731;BMP280;46580;52.114;11.674;2022-07-22T01:13:47;101241.31;;;19.62
60731;BMP280;46580;52.114;11.674;2022-07-22T01:16:14;101225.63;;;19.62
60731;BMP280;46580;52.114;11.674;2022-07-22T01:18:40;101237.88;;;19.62
60731;BMP280;46580;52.114;11.674;2022-07-22T01:21:07;101228.25;;;19.62
60731;BMP280;46580;52.114;11.674;2022-07-22T01:23:33;101232.34;;;19.65
60731;BMP280;46580;52.114;11.674;2022-07-22T01:25:59;101236.25;;;19.61
60731;BMP280;46580;52.114;11.674;2022-07-22T01:28:25;101228.06;;;19.56
60731;BMP280;46580;52.114;11.674;2022-07-22T01:30:51;101236.56;;;19.58
60731;BMP280;46580;52.114;11.674;2022-07-22T01:33:18;101242.13;;;19.63
60731;BMP280;46580;52.114;11.674;2022-07-22T01:35:43;101229.88;;;19.63
60731;BMP280;46580;52.114;11.674;2022-07-22T01:38:08;101238.84;;;19.61
60731;BMP280;46580;52.114;11.674;2022-07-22T01:40:34;101230.72;;;19.64
60731;BMP280;46580;52.114;11.674;2022-07-22T01:42:59;101234.47;;;19.69
60731;BMP280;46580;52.114;11.674;2022-07-22T01:45:25;101232.50;;;19.63
60731;BMP280;46580;52.114;11.674;2022-07-22T01:47:50;101241.16;;;19.64
60731;BMP280;46580;52.114;11.674;2022-07-22T01:50:15;101231.38;;;19.66
60731;BMP280;46580;52.114;11.674;2022-07-22T01:52:41;101229.56;;;19.58
60731;BMP280;46580;52.114;11.674;2022-07-22T01:55:07;101235.75;;;19.57
60731;BMP280;46580;52.114;11.674;2022-07-22T01:57:33;101233.28;;;19.56
60731;BMP280;46580;52.114;11.674;2022-07-22T01:59:58;101235.91;;;19.56
60731;BMP280;46580;52.114;11.674;2022-07-22T02:02:24;101231.84;;;19.61
60731;BMP280;46580;52.114;11.674;2022-07-22T02:04:49;101231.19;;;19.59
60731;BMP280;46580;52.114;11.674;2022-07-22T02:07:14;101233.28;;;19.56
60731;BMP280;46580;52.114;11.674;2022-07-22T02:09:40;101231.66;;;19.55
60731;BMP280;46580;52.114;11.674;2022-07-22T02:12:05;101234.56;;;19.52
60731;BMP280;46580;52.114;11.674;2022-07-22T02:14:31;101228.69;;;19.50
60731;BMP280;46580;52.114;11.674;2022-07-22T02:16:56;101228.69;;;19.50
60731;BMP280;46580;52.114;11.674;2022-07-22T02:19:21;101233.59;;;19.53
60731;BMP280;46580;52.114;11.674;2022-07-22T02:21:47;101230.31;;;19.51
60731;BMP280;46580;52.114;11.674;2022-07-22T02:24:12;101232.59;;;19.46
60731;BMP280;46580;52.114;11.674;2022-07-22T02:26:38;101225.59;;;19.47
60731;BMP280;46580;52.114;11.674;2022-07-22T02:29:03;101234.06;;;19.49
60731;BMP280;46580;52.114;11.674;2022-07-22T02:31:28;101227.38;;;19.46
60731;BMP280;46580;52.114;11.674;2022-07-22T02:33:54;101229.03;;;19.47
60731;BMP280;46580;52.114;11.674;2022-07-22T02:36:19;101229.03;;;19.47
60731;BMP280;46580;52.114;11.674;2022-07-22T02:38:45;101224.44;;;19.49
60731;BMP280;46580;52.114;11.674;2022-07-22T02:41:10;101222.66;;;19.50
60731;BMP280;46580;52.114;11.674;2022-07-22T02:43:36;101238.00;;;19.53
60731;BMP280;46580;52.114;11.674;2022-07-22T02:46:01;101231.28;;;19.50
60731;BMP280;46580;52.114;11.674;2022-07-22T02:48:27;101238.97;;;19.52
60731;BMP280;46580;52.114;11.674;2022-07-22T02:50:52;101237.50;;;19.49
60731;BMP280;46580;52.114;11.674;2022-07-22T02:53:18;101234.88;;;19.49
60731;BMP280;46580;52.114;11.674;2022-07-22T02:55:43;101233.75;;;19.52
60731;BMP280;46580;52.114;11.674;2022-07-22T02:58:09;101234.28;;;19.55
60731;BMP280;46580;52.114;11.674;2022-07-22T03:00:36;101239.78;;;19.52
60731;BMP280;46580;52.114;11.674;2022-07-22T03:03:03;101234.88;;;19.49
60731;BMP280;46580;52.114;11.674;2022-07-22T03:05:28;101238.81;;;19.53
60731;BMP280;46580;52.114;11.674;2022-07-22T03:07:54;101236.38;;;19.52
60731;BMP280;46580;52.114;11.674;2022-07-22T03:10:19;101234.41;;;19.54
60731;BMP280;46580;52.114;11.674;2022-07-22T03:12:44;101230.69;;;19.56
60731;BMP280;46580;52.114;11.674;2022-07-22T03:15:09;101231.34;;;19.58
60731;BMP280;46580;52.114;11.674;2022-07-22T03:17:36;101225.97;;;19.59
60731;BMP280;46580;52.114;11.674;2022-07-22T03:20:06;101235.09;;;19.55
60731;BMP280;46580;52.114;11.674;2022-07-22T03:22:32;101233.59;;;19.53
60731;BMP280;46580;52.114;11.674;2022-07-22T03:24:58;101233.09;;;19.50
60731;BMP280;46580;52.114;11.674;2022-07-22T03:27:23;101229.66;;;19.49
60731;BMP280;46580;52.114;11.674;2022-07-22T03:29:48;101232.28;;;19.49
60731;BMP280;46580;52.114;11.674;2022-07-22T03:32:14;101240.09;;;19.49
60731;BMP280;46580;52.114;11.674;2022-07-22T03:34:39;101239.47;;;19.47
60731;BMP280;46580;52.114;11.674;2022-07-22T03:37:04;101240.44;;;19.46
60731;BMP280;46580;52.114;11.674;2022-07-22T03:39:30;101240.78;;;19.51
60731;BMP280;46580;52.114;11.674;2022-07-22T03:41:55;101232.28;;;19.49
60731;BMP280;46580;52.114;11.674;2022-07-22T03:44:20;101238.13;;;19.43
60731;BMP280;46580;52.114;11.674;2022-07-22T03:46:46;101237.16;;;19.44
60731;BMP280;46580;52.114;11.674;2022-07-22T03:49:11;101236.19;;;19.45
60731;BMP280;46580;52.114;11.674;2022-07-22T03:51:37;101237.47;;;19.41
60731;BMP280;46580;52.114;11.674;2022-07-22T03:54:02;101231.91;;;19.36
60731;BMP280;46580;52.114;11.674;2022-07-22T03:56:27;101239.59;;;19.38
60731;BMP280;46580;52.114;11.674;2022-07-22T03:58:53;101236.16;;;19.37
60731;BMP280;46580;52.114;11.674;2022-07-22T04:01:18;101246.09;;;19.34
60731;BMP280;46580;52.114;11.674;2022-07-22T04:03:43;101245.44;;;19.32
60731;BMP280;46580;52.114;11.674;2022-07-22T04:06:09;101240.06;;;19.34
60731;BMP280;46580;52.114;11.674;2022-07-22T04:08:34;101235.84;;;19.33
60731;BMP280;46580;52.114;11.674;2022-07-22T04:11:00;101242.03;;;19.32
60731;BMP280;46580;52.114;11.674;2022-07-22T04:13:25;101242.03;;;19.32
60731;BMP280;46580;52.114;11.674;2022-07-22T04:15:50;101238.59;;;19.31
60731;BMP280;46580;52.114;11.674;2022-07-22T04:18:15;101243.81;;;19.31
60731;BMP280;46580;52.114;11.674;2022-07-22T04:20:42;101242.06;;;19.39
60731;BMP280;46580;52.114;11.674;2022-07-22T04:23:08;101246.47;;;19.39
60731;BMP280;46580;52.114;11.674;2022-07-22T04:25:33;101249.09;;;19.47
60731;BMP280;46580;52.114;11.674;2022-07-22T04:27:59;101254.78;;;19.50
60731;BMP280;46580;52.114;11.674;2022-07-22T04:30:25;101255.78;;;19.49
60731;BMP280;46580;52.114;11.674;2022-07-22T04:32:50;101257.38;;;19.42
60731;BMP280;46580;52.114;11.674;2022-07-22T04:35:15;101253.16;;;19.49
60731;BMP280;46580;52.114;11.674;2022-07-22T04:37:41;101255.19;;;19.63
60731;BMP280;46580;52.114;11.674;2022-07-22T04:40:06;101249.47;;;19.59
60731;BMP280;46580;52.114;11.674;2022-07-22T04:42:32;101252.25;;;19.58
60731;BMP280;46580;52.114;11.674;2022-07-22T04:44:57;101251.56;;;19.56
60731;BMP280;46580;52.114;11.674;2022-07-22T04:47:22;101259.34;;;19.48
60731;BMP280;46580;52.114;11.674;2022-07-22T04:49:48;101257.78;;;19.55
60731;BMP280;46580;52.114;11.674;2022-07-22T04:52:13;101256.81;;;19.56
60731;BMP280;46580;52.114;11.674;2022-07-22T04:54:39;101252.41;;;19.64
60731;BMP280;46580;52.114;11.674;2022-07-22T04:57:04;101253.91;;;19.67
60731;BMP280;46580;52.114;11.674;2022-07-22T04:59:29;101255.88;;;19.88
60731;BMP280;46580;52.114;11.674;2022-07-22T05:01:54;101255.69;;;19.82
60731;BMP280;46580;52.114;11.674;2022-07-22T05:04:20;101249.50;;;19.91
60731;BMP280;46580;52.114;11.674;2022-07-22T05:06:45;101256.53;;;19.98
60731;BMP280;46580;52.114;11.674;2022-07-22T05:09:10;101256.06;;;20.02
60731;BMP280;46580;52.114;11.674;2022-07-22T05:11:36;101266.50;;;20.10
60731;BMP280;46580;52.114;11.674;2022-07-22T05:14:01;101257.19;;;20.15
60731;BMP280;46580;52.114;11.674;2022-07-22T05:16:27;101260.47;;;20.17
60731;BMP280;46580;52.114;11.674;2022-07-22T05:18:52;101260.31;;;20.27
60731;BMP280;46580;52.114;11.674;2022-07-22T05:21:17;101261.97;;;20.35
60731;BMP280;46580;52.114;11.674;2022-07-22T05:23:43;101263.13;;;20.41
60731;BMP280;46580;52.114;11.674;2022-07-22T05:26:08;101263.13;;;20.41
60731;BMP280;46580;52.114;11.674;2022-07-22T05:28:34;101252.97;;;20.46
60731;BMP280;46580;52.114;11.674;2022-07-22T05:30:59;101252.00;;;20.54
60731;BMP280;46580;52.114;11.674;2022-07-22T05:33:25;101255.06;;;20.58
60731;BMP280;46580;52.114;11.674;2022-07-22T05:35:51;101262.09;;;20.57
60731;BMP280;46580;52.114;11.674;2022-07-22T05:38:17;101258.16;;;20.69
60731;BMP280;46580;52.114;11.674;2022-07-22T05:40:42;101261.44;;;20.71
60731;BMP280;46580;52.114;11.674;2022-07-22T05:43:08;101262.25;;;20.64
60731;BMP280;46580;52.114;11.674;2022-07-22T05:45:34;101269.94;;;20.57
60731;BMP280;46580;52.114;11.674;2022-07-22T05:47:59;101265.69;;;20.56
60731;BMP280;46580;52.114;11.674;2022-07-22T05:50:26;101262.09;;;20.57
60731;BMP280;46580;52.114;11.674;2022-07-22T05:52:51;101268.00;;;20.51
60731;BMP280;46580;52.114;11.674;2022-07-22T05:55:17;101274.88;;;20.45
60731;BMP280;46580;52.114;11.674;2022-07-22T05:57:42;101278.00;;;20.40
60731;BMP280;46580;52.114;11.674;2022-07-22T06:00:08;101287.94;;;20.37
60731;BMP280;46580;52.114;11.674;2022-07-22T06:02:34;101290.88;;;20.34
60731;BMP280;46580;52.114;11.674;2022-07-22T06:04:59;101290.22;;;20.24
60731;BMP280;46580;52.114;11.674;2022-07-22T06:07:28;101296.75;;;20.12
60731;BMP280;46580;52.114;11.674;2022-07-22T06:09:53;101297.41;;;20.07
60731;BMP280;46580;52.114;11.674;2022-07-22T06:12:19;101294.63;;;20.00
60731;BMP280;46580;52.114;11.674;2022-07-22T06:14:44;101298.53;;;20.04
60731;BMP280;46580;52.114;11.674;2022-07-22T06:17:11;101304.72;;;20.03
60731;BMP280;46580;52.114;11.674;2022-07-22T06:19:37;101314.03;;;19.98
60731;BMP280;46580;52.114;11.674;2022-07-22T06:22:02;101307.53;;;19.94
60731;BMP280;46580;52.114;11.674;2022-07-22T06:24:27;101305.53;;;19.96
60731;BMP280;46580;52.114;11.674;2022-07-22T06:26:53;101313.88;;;19.99
60731;BMP280;46580;52.114;11.674;2022-07-22T06:29:18;101306.88;;;20.00
60731;BMP280;46580;52.114;11.674;2022-07-22T06:31:44;101301.94;;;19.97
60731;BMP280;46580;52.114;11.674;2022-07-22T06:34:09;101312.56;;;19.95
60731;BMP280;46580;52.114;11.674;2022-07-22T06:36:34;101313.38;;;19.96
60731;BMP280;46580;52.114;11.674;2022-07-22T06:39:00;101307.03;;;19.98
60731;BMP280;46580;52.114;11.674;2022-07-22T06:41:26;101309.97;;;20.03
60731;BMP280;46580;52.114;11.674;2022-07-22T06:43:51;101317.50;;;20.06
60731;BMP280;46580;52.114;11.674;2022-07-22T06:46:17;101321.41;;;19.94
60731;BMP280;46580;52.114;11.674;2022-07-22T06:48:42;101325.16;;;19.92
60731;BMP280;46580;52.114;11.674;2022-07-22T06:51:08;101319.56;;;19.95
60731;BMP280;46580;52.114;11.674;2022-07-22T06:53:33;101324.47;;;19.90
60731;BMP280;46580;52.114;11.674;2022-07-22T06:56:05;101316.97;;;19.87
60731;BMP280;46580;52.114;11.674;2022-07-22T06:58:30;101322.53;;;19.92
60731;BMP280;46580;52.114;11.674;2022-07-22T07:00:55;101320.09;;;19.98
60731;BMP280;46580;52.114;11.674;2022-07-22T07:03:21;101327.78;;;20.00
60731;BMP280;46580;52.114;11.674;2022-07-22T07:05:48;101327.13;;;20.06
60731;BMP280;46580;52.114;11.674;2022-07-22T07:08:13;101327.94;;;20.06
60731;BMP280;46580;52.114;11.674;2022-07-22T07:10:38;101323.84;;;20.04
60731;BMP280;46580;52.114;11.674;2022-07-22T07:13:04;101318.97;;;20.16
60731;BMP280;46580;52.114;11.674;2022-07-22T07:15:29;101325.84;;;20.25
60731;BMP280;46580;52.114;11.674;2022-07-22T07:17:56;101320.28;;;20.20
60731;BMP280;46580;52.114;11.674;2022-07-22T07:20:22;101324.53;;;20.13
60731;BMP280;46580;52.114;11.674;2022-07-22T07:22:47;101323.53;;;20.07
60731;BMP280;46580;52.114;11.674;2022-07-22T07:25:13;101324.19;;;20.01
60731;BMP280;46580;52.114;11.674;2022-07-22T07:27:39;101326.28;;;19.90
60731;BMP280;46580;52.114;11.674;2022-07-22T07:30:05;101334.25;;;19.88
60731;BMP280;46580;52.114;11.674;2022-07-22T07:32:31;101335.25;;;19.79
60731;BMP280;46580;52.114;11.674;2022-07-22T07:34:56;101329.88;;;19.81
60731;BMP280;46580;52.114;11.674;2022-07-22T07:37:22;101337.22;;;19.85
60731;BMP280;46580;52.114;11.674;2022-07-22T07:39:47;101341.94;;;19.90
60731;BMP280;46580;52.114;11.674;2022-07-22T07:42:13;101341.47;;;19.86
60731;BMP280;46580;52.114;11.674;2022-07-22T07:44:38;101343.75;;;19.89
60731;BMP280;46580;52.114;11.674;2022-07-22T07:47:03;101343.47;;;20.08
60731;BMP280;46580;52.114;11.674;2022-07-22T07:49:29;101349.03;;;20.20
60731;BMP280;46580;52.114;11.674;2022-07-22T07:51:54;101346.09;;;20.23
60731;BMP280;46580;52.114;11.674;2022-07-22T07:54:20;101349.38;;;20.25
60731;BMP280;46580;52.114;11.674;2022-07-22T07:56:46;101350.72;;;20.37
60731;BMP280;46580;52.114;11.674;2022-07-22T07:59:11;101341.56;;;20.41
60731;BMP280;46580;52.114;11.674;2022-07-22T08:01:37;101343.38;;;20.40
60731;BMP280;46580;52.114;11.674;2022-07-22T08:04:02;101345.19;;;20.48
60731;BMP280;46580;52.114;11.674;2022-07-22T08:06:27;101347.13;;;20.61
60731;BMP280;46580;52.114;11.674;2022-07-22T08:08:53;101344.16;;;20.87
60731;BMP280;46580;52.114;11.674;2022-07-22T08:11:18;101350.69;;;20.91
60731;BMP280;46580;52.114;11.674;2022-07-22T08:13:43;101351.19;;;20.95
60731;BMP280;46580;52.114;11.674;2022-07-22T08:16:09;101349.03;;;20.90
60731;BMP280;46580;52.114;11.674;2022-07-22T08:18:34;101346.13;;;20.86
60731;BMP280;46580;52.114;11.674;2022-07-22T08:21:00;101344.31;;;20.94
60731;BMP280;46580;52.114;11.674;2022-07-22T08:23:25;101357.56;;;20.92
60731;BMP280;46580;52.114;11.674;2022-07-22T08:25:50;101352.78;;;20.96
60731;BMP280;46580;52.114;11.674;2022-07-22T08:28:16;101361.81;;;21.01
60731;BMP280;46580;52.114;11.674;2022-07-22T08:30:41;101357.53;;;21.08
60731;BMP280;46580;52.114;11.674;2022-07-22T08:33:07;101362.78;;;21.00
60731;BMP280;46580;52.114;11.674;2022-07-22T08:35:33;101353.78;;;21.18
60731;BMP280;46580;52.114;11.674;2022-07-22T08:37:58;101355.56;;;21.25
60731;BMP280;46580;52.114;11.674;2022-07-22T08:40:24;101366.03;;;21.10
60731;BMP280;46580;52.114;11.674;2022-07-22T08:42:50;101365.91;;;20.88
60731;BMP280;46580;52.114;11.674;2022-07-22T08:45:17;101364.44;;;20.93
60731;BMP280;46580;52.114;11.674;2022-07-22T08:47:50;101362.59;;;21.09
60731;BMP280;46580;52.114;11.674;2022-07-22T08:50:16;101364.44;;;20.93
60731;BMP280;46580;52.114;11.674;2022-07-22T08:52:42;101365.41;;;21.08
60731;BMP280;46580;52.114;11.674;2022-07-22T08:55:08;101369.31;;;20.96
60731;BMP280;46580;52.114;11.674;2022-07-22T08:57:34;101364.41;;;21.09
60731;BMP280;46580;52.114;11.674;2022-07-22T09:00:01;101366.69;;;21.27
60731;BMP280;46580;52.114;11.674;2022-07-22T09:02:27;101362.19;;;21.43
60731;BMP280;46580;52.114;11.674;2022-07-22T09:04:59;101361.72;;;21.40
60731;BMP280;46580;52.114;11.674;2022-07-22T09:07:26;101367.09;;;21.46
60731;BMP280;46580;52.114;11.674;2022-07-22T09:09:52;101360.19;;;21.16
60731;BMP280;46580;52.114;11.674;2022-07-22T09:12:17;101360.38;;;21.52
60731;BMP280;46580;52.114;11.674;2022-07-22T09:14:50;101357.97;;;21.42
60731;BMP280;46580;52.114;11.674;2022-07-22T09:17:33;101362.41;;;21.34
60731;BMP280;46580;52.114;11.674;2022-07-22T09:20:03;101354.47;;;21.50
60731;BMP280;46580;52.114;11.674;2022-07-22T09:22:38;101358.41;;;21.54
60731;BMP280;46580;52.114;11.674;2022-07-22T09:27:49;101355.78;;;21.54
60731;BMP280;46580;52.114;11.674;2022-07-22T09:30:23;101355.03;;;21.75
60731;BMP280;46580;52.114;11.674;2022-07-22T09:32:49;101348.09;;;21.44
60731;BMP280;46580;52.114;11.674;2022-07-22T09:35:15;101356.75;;;21.61
60731;BMP280;46580;52.114;11.674;2022-07-22T09:37:49;101347.75;;;21.93
60731;BMP280;46580;52.114;11.674;2022-07-22T09:40:16;101348.84;;;21.98
60731;BMP280;46580;52.114;11.674;2022-07-22T09:42:48;101353.22;;;22.05
60731;BMP280;46580;52.114;11.674;2022-07-22T09:45:14;101359.41;;;22.12
60731;BMP280;46580;52.114;11.674;2022-07-22T09:47:41;101363.03;;;22.33
60731;BMP280;46580;52.114;11.674;2022-07-22T09:52:46;101365.09;;;22.23
60731;BMP280;46580;52.114;11.674;2022-07-22T09:55:14;101374.41;;;22.26
60731;BMP280;46580;52.114;11.674;2022-07-22T09:57:40;101369.41;;;22.60
60731;BMP280;46580;52.114;11.674;2022-07-22T10:00:06;101375.06;;;23.08
60731;BMP280;46580;52.114;11.674;2022-07-22T10:02:40;101380.28;;;22.93
60731;BMP280;46580;52.114;11.674;2022-07-22T10:05:07;101377.09;;;22.84
60731;BMP280;46580;52.114;11.674;2022-07-22T10:07:34;101373.06;;;22.73
60731;BMP280;46580;52.114;11.674;2022-07-22T10:10:01;101370.63;;;22.50
60731;BMP280;46580;52.114;11.674;2022-07-22T10:12:27;101375.88;;;22.28
60731;BMP280;46580;52.114;11.674;2022-07-22T10:14:53;101370.97;;;22.47
60731;BMP280;46580;52.114;11.674;2022-07-22T10:17:19;101371.41;;;22.36
60731;BMP280;46580;52.114;11.674;2022-07-22T10:19:44;101374.25;;;22.49
60731;BMP280;46580;52.114;11.674;2022-07-22T10:25:04;101381.72;;;22.60
60731;BMP280;46580;52.114;11.674;2022-07-22T10:30:37;101365.03;;;22.53
60731;BMP280;46580;52.114;11.674;2022-07-22T10:33:11;101366.66;;;22.76
60731;BMP280;46580;52.114;11.674;2022-07-22T10:38:17;101360.41;;;22.63
60731;BMP280;46580;52.114;11.674;2022-07-22T10:43:17;101365.41;;;22.86
60731;BMP280;46580;52.114;11.674;2022-07-22T10:45:52;101356.47;;;22.95
60731;BMP280;46580;52.114;11.674;2022-07-22T10:50:50;101357.41;;;22.66
60731;BMP280;46580;52.114;11.674;2022-07-22T10:53:25;101357.13;;;23.11
60731;BMP280;46580;52.114;11.674;2022-07-22T10:56:35;101350.53;;;23.57
60731;BMP280;46580;52.114;11.674;2022-07-22T10:59:14;101337.88;;;23.81
60731;BMP280;46580;52.114;11.674;2022-07-22T11:01:42;101328.88;;;23.55
60731;BMP280;46580;52.114;11.674;2022-07-22T11:04:16;101350.25;;;23.52
60731;BMP280;46580;52.114;11.674;2022-07-22T11:06:43;101335.09;;;23.68
60731;BMP280;46580;52.114;11.674;2022-07-22T11:09:10;101330.06;;;23.87
60731;BMP280;46580;52.114;11.674;2022-07-22T11:11:43;101328.72;;;23.91
60731;BMP280;46580;52.114;11.674;2022-07-22T11:14:30;101330.81;;;23.96
60731;BMP280;46580;52.114;11.674;2022-07-22T11:17:05;101339.09;;;23.22
60731;BMP280;46580;52.114;11.674;2022-07-22T11:19:31;101336.66;;;23.63
60731;BMP280;46580;52.114;11.674;2022-07-22T11:22:01;101327.91;;;23.91
60731;BMP280;46580;52.114;11.674;2022-07-22T11:24:30;101324.22;;;23.71
60731;BMP280;46580;52.114;11.674;2022-07-22T11:26:59;101330.19;;;24.14
60731;BMP280;46580;52.114;11.674;2022-07-22T11:29:35;101336.34;;;23.72
60731;BMP280;46580;52.114;11.674;2022-07-22T11:32:05;101340.22;;;24.05
60731;BMP280;46580;52.114;11.674;2022-07-22T11:34:30;101338.81;;;23.60
60731;BMP280;46580;52.114;11.674;2022-07-22T11:36:56;101342.81;;;23.70
60731;BMP280;46580;52.114;11.674;2022-07-22T11:39:25;101346.19;;;23.36
60731;BMP280;46580;52.114;11.674;2022-07-22T11:41:51;101338.91;;;22.95
60731;BMP280;46580;52.114;11.674;2022-07-22T11:44:23;101327.25;;;23.26
60731;BMP280;46580;52.114;11.674;2022-07-22T11:46:48;101339.22;;;23.43
60731;BMP280;46580;52.114;11.674;2022-07-22T11:49:17;101334.69;;;23.37
60731;BMP280;46580;52.114;11.674;2022-07-22T11:51:42;101337.53;;;23.98
60731;BMP280;46580;52.114;11.674;2022-07-22T11:54:08;101331.69;;;23.88
60731;BMP280;46580;52.114;11.674;2022-07-22T11:56:35;101336.59;;;23.43
60731;BMP280;46580;52.114;11.674;2022-07-22T11:59:01;101334.09;;;23.84
60731;BMP280;46580;52.114;11.674;2022-07-22T12:01:31;101332.28;;;24.19
60731;BMP280;46580;52.114;11.674;2022-07-22T12:03:59;101335.72;;;23.99
60731;BMP280;46580;52.114;11.674;2022-07-22T12:06:26;101329.28;;;23.73
60731;BMP280;46580;52.114;11.674;2022-07-22T12:09:01;101323.78;;;23.26
60731;BMP280;46580;52.114;11.674;2022-07-22T12:11:27;101318.25;;;23.21
60731;BMP280;46580;52.114;11.674;2022-07-22T12:13:53;101327.56;;;23.31
60731;BMP280;46580;52.114;11.674;2022-07-22T12:19:12;101327.25;;;23.26
60731;BMP280;46580;52.114;11.674;2022-07-22T12:21:56;101322.00;;;23.40
60731;BMP280;46580;52.114;11.674;2022-07-22T12:26:56;101335.84;;;23.20
60731;BMP280;46580;52.114;11.674;2022-07-22T12:29:30;101331.59;;;23.33
60731;BMP280;46580;52.114;11.674;2022-07-22T12:32:02;101327.41;;;23.67
60731;BMP280;46580;52.114;11.674;2022-07-22T12:34:38;101316.25;;;24.00
60731;BMP280;46580;52.114;11.674;2022-07-22T12:37:15;101329.25;;;23.87
60731;BMP280;46580;52.114;11.674;2022-07-22T12:42:28;101332.25;;;23.84
60731;BMP280;46580;52.114;11.674;2022-07-22T12:45:01;101334.59;;;23.16
60731;BMP280;46580;52.114;11.674;2022-07-22T12:50:20;101323.16;;;23.24
60731;BMP280;46580;52.114;11.674;2022-07-22T12:52:50;101317.44;;;23.63
60731;BMP280;46580;52.114;11.674;2022-07-22T12:55:16;101317.63;;;23.61
60731;BMP280;46580;52.114;11.674;2022-07-22T12:57:41;101311.47;;;23.40
60731;BMP280;46580;52.114;11.674;2022-07-22T13:00:07;101312.75;;;24.13
60731;BMP280;46580;52.114;11.674;2022-07-22T13:02:33;101308.94;;;23.95
60731;BMP280;46580;52.114;11.674;2022-07-22T13:04:59;101307.66;;;24.05
60731;BMP280;46580;52.114;11.674;2022-07-22T13:07:24;101314.34;;;24.08
60731;BMP280;46580;52.114;11.674;2022-07-22T13:09:50;101309.66;;;23.89
60731;BMP280;46580;52.114;11.674;2022-07-22T13:12:15;101306.50;;;23.94
60731;BMP280;46580;52.114;11.674;2022-07-22T13:14:41;101311.13;;;23.92
60731;BMP280;46580;52.114;11.674;2022-07-22T13:17:06;101310.09;;;23.93
60731;BMP280;46580;52.114;11.674;2022-07-22T13:19:31;101308.31;;;23.79
60731;BMP280;46580;52.114;11.674;2022-07-22T13:21:57;101305.50;;;23.81
60731;BMP280;46580;52.114;11.674;2022-07-22T13:24:22;101305.97;;;23.84
60731;BMP280;46580;52.114;11.674;2022-07-22T13:26:47;101305.50;;;23.81
60731;BMP280;46580;52.114;11.674;2022-07-22T13:29:12;101303.13;;;23.85
60731;BMP280;46580;52.114;11.674;2022-07-22T13:31:38;101304.09;;;24.40
60731;BMP280;46580;52.114;11.674;2022-07-22T13:34:03;101294.03;;;24.43
60731;BMP280;46580;52.114;11.674;2022-07-22T13:36:29;101291.97;;;24.86
60731;BMP280;46580;52.114;11.674;2022-07-22T13:38:57;101297.28;;;24.92
60731;BMP280;46580;52.114;11.674;2022-07-22T13:41:23;101296.91;;;25.01
60731;BMP280;46580;52.114;11.674;2022-07-22T13:43:48;101288.75;;;24.63
60731;BMP280;46580;52.114;11.674;2022-07-22T13:46:14;101284.91;;;24.19
60731;BMP280;46580;52.114;11.674;2022-07-22T13:48:39;101295.44;;;24.19
60731;BMP280;46580;52.114;11.674;2022-07-22T13:51:05;101288.03;;;23.73
60731;BMP280;46580;52.114;11.674;2022-07-22T13:53:31;101295.88;;;23.87
60731;BMP280;46580;52.114;11.674;2022-07-22T13:55:56;101287.81;;;23.89
60731;BMP280;46580;52.114;11.674;2022-07-22T13:58:21;101292.25;;;23.88
60731;BMP280;46580;52.114;11.674;2022-07-22T14:00:47;101287.75;;;23.83
60731;BMP280;46580;52.114;11.674;2022-07-22T14:03:12;101287.50;;;23.78
60731;BMP280;46580;52.114;11.674;2022-07-22T14:05:38;101289.59;;;23.68
60731;BMP280;46580;52.114;11.674;2022-07-22T14:08:03;101279.16;;;23.74
60731;BMP280;46580;52.114;11.674;2022-07-22T14:10:29;101285.22;;;23.40